Airfield :
LOGIN :

Register | Disclaimer

   EN    FR    IT 

 










Legend :    VFR   Marginal VFR   IFR   Intensive IFR   Very Intensive IFR
Visi :
Ceiling :
>= 8 km
>= 3000ft
5 to 8 km
1000 to 3000 ft
1500m to 5 km
500 to 1000 ft
800 to 1500m
200 to 500 ft
< 800m
< 200 ft
Symbols :   Thunderstorms  Fog  Heavy snow  Heavy precipitations  Wind > 20 kt
SIGMETs :     Misc.  Thunderstorms  Icing  Turbulence  Mountain Waves  Volcanic Ashes







- Airport Elevation : 1197 ft
- IATA code : SPM


ETAD - Spangdahlem Ab

CURRENT METAR :
  • 152256Z AUTO 00000KT 9999 CLR 02/M02 A3036 RMK AO2 SLP282 T00211021 401531022 $

EXPIRED METARs :
  • 152156Z AUTO 00000KT 9999 CLR 06/M02 A3036 RMK AO2 SLP281 T00551017 $
  • 152056Z AUTO 08006KT 9999 CLR 05/M01 A3037 RMK AO2 SLP287 T00501015 58005 $
  • 151956Z AUTO 08007KT 9999 CLR 06/M01 A3038 RMK AO2 SLP292 T00571012 $

TAF TAF ETAD
Valid from the 15 at 21:00 until the 17 at 03:00 UTC


152053Z 1521/1703 VRB06KT 9999 SKC QNH3029INS
BECMG 1700/1701 VRB06KT 6000 BR SKC QNH3026INS TX13/1613Z TNM01/1607Z LAST NO AMDS AFT 1521 NEXT 1607
No reported NOTAMs for that airfield.



MET'MAP, your aeronautical weather chart ! - Copyright ORBIFLY December 2007 - Disclaimer

ORBIFLY MET'MAP TEAM :

Programming & Development : Alexandra Zaïnal
Concept & Development : Baudouin d'Aumeries
Co-Development & Prog : Marc-Olivier Méhu
Technical & hardware support : Manuel Goepfert

Contact : metmap@orbifly.com




SOURCES & CREDITS :

   NOAA